Aviation Digital Data Service (ADDS)

Output produced by METARs form (0605 UTC 25 June 2018)
found at http://www.aviationweather.gov/adds/metars/
 
UTAA 250500Z 17004KT 9999 NSC 37/03 Q1010 R88/70D NOSIG
TAF AMD UTAA 250555Z 2506/2606 03016KT 6000 SCT050 TX41/2510Z 530009 
     TEMPO 2506/2512 32018KT 
     BECMG 2514/2516 22014KT
       
UTAK 250500Z 34006KT CAVOK 35/08 Q1011 NOSIG
TAF UTAK 250430Z 2506/2606 10016KT CAVOK TX40/2510Z 530009 
     TEMPO 2506/2509 03016KT 
     TEMPO 2509/2518 27016KT
       
UTAM 250500Z 06008KT CAVOK 33/08 Q1010 NOSIG
TAF UTAM 250430Z 2506/2606 04014KT CAVOK 530009 
     TEMPO 2506/2514 36010G20KT 5000 SCT050 
     BECMG 2514/2515 03010KT 6000 NSC
       
UTAT 250500Z 31008KT CAVOK 34/07 Q1010 NOSIG
TAF UTAT 250433Z 2506/2606 36016KT CAVOK 530005 
     TEMPO 2507/2512 VRB04KT
       
UTAV 250500Z 01008KT 310V050 CAVOK 33/04 Q1010 NOSIG
TAF UTAV 250430Z 2506/2606 07012KT CAVOK T40/2510Z 530007 
     TEMPO 2506/2514 01016G26KT 3000 BLDU SCT050 560006 
     BECMG 2516/2518 05010KT 5000 NSC 530003 
     TEMPO 2516/2601 VRB04KT 2000 HZ FU SKC 
     TEMPO 2601/2606 03014G24KT 3000 DRDU SCT050 560006
       
UTDD 250530Z 12004MPS 080V160 9999 NSC 31/06 Q1011 R09/D NOSIG RMK QFE690/0920
TAF UTDD 250300Z 2504/2516 VRB02MPS 6000 FEW066CB SCT120 
     TEMPO 2504/2516 10005MPS 
     PROB40 
     TEMPO 2507/2516 TS
       
UTDK 250530Z 22004MPS 170V270 9999 NSC 33/M01 Q1011 R01/09//70 RMK QFE701/0935
TAF UTDK 250300Z 2504/2513 VRB02MPS 6000 FEW066CB SCT130 
     TEMPO 2507/2513 21005MPS 
     PROB40 
     TEMPO 2507/2513 TS
       
UTDL 250530Z 09002MPS 9999 NSC 29/09 Q1010 R08/CLRD70 NOSIG RMK QFE719/0958
TAF UTDL 250300Z 2504/2513 08005MPS 9999 NSC 
     TEMPO 2504/2510 07009MPS FEW050 
     TEMPO 2510/2513 VRB02MPS FEW060CB
       
UTDT 250530Z 17003MPS 140V200 9999 NSC 32/04 Q1009 35CLRD70 RMK QFE717/0957
TAF UTDT 250300Z 2504/2513 VRB02MPS 6000 FEW066CB SCT120 
     TEMPO 2507/2513 22005MPS 
     PROB40 
     TEMPO 2507/2513 TS
       
UTFF 250500Z 01004KT 010V080 9999 NSC 24/09 Q1011 R18/CLRD70
TAF UTFF 250300Z 2504/2513 33010KT FEW060CB 
     TEMPO 2510/2513 28014G24KT 6000 SCT060CB
       
UTFN 250530Z 10004KT 050V140 9999 FEW050CB 26/08 Q1010 R28/CLRD70 NOSIG
TAF UTFN 250500Z 2506/2606 14010KT 9999 FEW050CB SCT100 
     TEMPO 2506/2518 24015G25KT SCT050CB 
     PROB40 
     TEMPO 2506/2518 7000 -TSRA
       
UTNN 250530Z 25012KT CAVOK 32/07 Q1011 R33/CLRD60 NOSIG
TAF COR UTNN 250500Z 2506/2606 27010G20KT CAVOK TX37/2512Z TN20/2600Z 
     TEMPO 2516/2604 VRB04KT
       
UTNU 250530Z 29008KT CAVOK 33/08 Q1010 R31/CLRD70 NOSIG
TAF UTNU 250500Z 2506/2606 30012G22KT CAVOK TX36/2511Z 
     TEMPO 2506/2512 27010KT
       
UTSA 250530Z 33012KT 9999 NSC 32/00 Q1010 R07/CLRD70 NOSIG
TAF UTSA 250501Z 2506/2606 VRB03KT 7000 NSC TX37/2510Z 
     TEMPO 2506/2517 33010KT FEW033
       
UTSB 250530Z 32006KT CAVOK 32/04 Q1010 R01/CLRD70 NOSIG
TAF UTSB 250500Z 2506/2606 VRB03KT 7000 NSC TX37/2510Z 
     TEMPO 2506/2517 34010KT FEW033
       
UTSK 250530Z 34010KT 300V360 CAVOK 31/05 Q1010 R34/CLRD70
TAF UTSK 250250Z 2504/2513 VRB04KT CAVOK TX37/2510Z 
     TEMPO 2504/2509 36010G20KT
       
UTSS 250530Z 05002KT 9999 NSC 29/01 Q1012 R09/70D NOSIG
TAF UTSS 250500Z 2506/2606 07010G20KT 9999 NSC 
     TEMPO 2506/2514 31010G20KT SCT066CB 
     BECMG 2514/2516 13008KT
       
UTST 250530Z 29008KT 250V330 CAVOK 32/08 Q1008 R88/CLRD70 NOSIG
TAF UTST 250500Z 2506/2606 25012G22KT 6000 NSC TX39/2511Z 
     TEMPO 2506/2516 26019G29KT 3000 -DS
       
UTTT 250530Z 25006KT 220V290 CAVOK 29/09 Q1010 R08R/CLRD70 NOSIG
TAF UTTT 250500Z 2506/2606 22010KT 9999 FEW060CB SCT100 
     TEMPO 2506/2516 30012G22KT 
     PROB40 
     TEMPO 2508/2516 TSRA SCT060CB
       
UTSB 250530Z 32006KT CAVOK 32/04 Q1010 R01/CLRD70 NOSIG
TAF UTSB 250500Z 2506/2606 VRB03KT 7000 NSC TX37/2510Z 
     TEMPO 2506/2517 34010KT FEW033
       
UTSK 250530Z 34010KT 300V360 CAVOK 31/05 Q1010 R34/CLRD70
TAF UTSK 250250Z 2504/2513 VRB04KT CAVOK TX37/2510Z 
     TEMPO 2504/2509 36010G20KT
       
UTSS 250530Z 05002KT 9999 NSC 29/01 Q1012 R09/70D NOSIG
TAF UTSS 250500Z 2506/2606 07010G20KT 9999 NSC 
     TEMPO 2506/2514 31010G20KT SCT066CB 
     BECMG 2514/2516 13008KT
       
UTST 250530Z 29008KT 250V330 CAVOK 32/08 Q1008 R88/CLRD70 NOSIG
TAF UTST 250500Z 2506/2606 25012G22KT 6000 NSC TX39/2511Z 
     TEMPO 2506/2516 26019G29KT 3000 -DS
       
UTNU 250530Z 29008KT CAVOK 33/08 Q1010 R31/CLRD70 NOSIG
TAF UTNU 250500Z 2506/2606 30012G22KT CAVOK TX36/2511Z 
     TEMPO 2506/2512 27010KT
       
UTTT 250530Z 25006KT 220V290 CAVOK 29/09 Q1010 R08R/CLRD70 NOSIG
TAF UTTT 250500Z 2506/2606 22010KT 9999 FEW060CB SCT100 
     TEMPO 2506/2516 30012G22KT 
     PROB40 
     TEMPO 2508/2516 TSRA SCT060CB